Alpine Madeleine — VREC6 — position and weather

sailwx.info

Track history (hours):
 
Tides and Currents Weather Stations Pressure Air Temp Water Temp Dewpoint Dewpoint Depression Visibility Wind Speed Wind Dir Waves Ship Positions

Alpine Madeleine

Last reported at 2017-Sep-25 07:26 UTC. Time now 2017-Sep-26 05:56 UTC.
Position N 38°04' W 122°15'.

Length 183 m; draft 7.2 m.

Type: Tanker. MMSI: 477110300.

Date/timePositionNaut miles runAvg speedWind from/ knotsBaromVisibWave heightAir tempDewpointWater temp
2017-Sep-25 07:26N 38°04' W 122°15'0 0.0
2017-Sep-25 07:00N 38°04' W 122°15'1 1.5
2017-Sep-25 06:30N 38°04' W 122°15'4 8.5
2017-Sep-25 06:00N 38°03' W 122°21'510.7
2017-Sep-25 05:30N 37°59' W 122°26'510.0
2017-Sep-25 05:00N 37°54' W 122°26'510.7
2017-Sep-25 04:30N 37°49' W 122°23'4 8.7
2017-Sep-25 04:00N 37°46' W 122°20'0 0.0
2017-Sep-25 03:30N 37°46' W 122°20'0 0.0
2017-Sep-25 03:00N 37°46' W 122°20'0 0.0
2017-Sep-25 02:30N 37°46' W 122°20'0 0.0
2017-Sep-25 02:00N 37°46' W 122°20'0 0.0
2017-Sep-25 01:30N 37°46' W 122°20'0 0.0
2017-Sep-25 01:00N 37°46' W 122°20'0 0.0
2017-Sep-25 00:30N 37°46' W 122°20'0 0.2
2017-Sep-25 00:00N 37°46' W 122°20'0 0.1
2017-Sep-24 23:30N 37°46' W 122°20'0 0.1
2017-Sep-24 23:00N 37°46' W 122°20'0 0.2
2017-Sep-24 22:30N 37°45' W 122°20'0 0.0
2017-Sep-24 22:00N 37°45' W 122°20'0 0.1
2017-Sep-24 21:30N 37°45' W 122°20'0 0.0
2017-Sep-24 21:00N 37°45' W 122°20'0 0.0
2017-Sep-24 20:30N 37°45' W 122°20'0 0.0
2017-Sep-24 20:00N 37°45' W 122°20'0 0.0
2017-Sep-24 19:30N 37°45' W 122°20'0 0.0
2017-Sep-24 19:00N 37°45' W 122°20'0 0.0
2017-Sep-24 18:30N 37°45' W 122°20'0 0.0
2017-Sep-24 18:00N 37°45' W 122°20'0 0.1
2017-Sep-24 17:30N 37°45' W 122°20'0 0.4
2017-Sep-24 17:00N 37°46' W 122°20'0 0.1
2017-Sep-24 16:30N 37°46' W 122°20'0 0.0
2017-Sep-24 16:00N 37°46' W 122°20'0 0.0
2017-Sep-24 15:30N 37°46' W 122°20'0 0.0
2017-Sep-24 14:59N 37°46' W 122°20'0 0.0
2017-Sep-24 14:30N 37°46' W 122°20'0 0.0
2017-Sep-24 14:00N 37°46' W 122°20'0 0.0
2017-Sep-24 13:29N 37°46' W 122°20'0 0.0
2017-Sep-24 13:00N 37°46' W 122°20'0 0.1
2017-Sep-24 12:30N 37°46' W 122°20'0 0.1
2017-Sep-24 12:00N 37°46' W 122°20'0 0.0
2017-Sep-24 11:30N 37°46' W 122°20'0 0.1
2017-Sep-24 11:00N 37°45' W 122°20'0 0.2
2017-Sep-24 10:30N 37°45' W 122°20'0 0.1
2017-Sep-24 10:00N 37°45' W 122°20'0 0.1
2017-Sep-24 09:30N 37°45' W 122°20'0 0.7
2017-Sep-24 09:00N 37°45' W 122°21'510.3
2017-Sep-24 08:30N 37°49' W 122°25'714.3
2017-Sep-24 08:00N 37°47' W 122°34'612.9
2017-Sep-24 07:30N 37°44' W 122°41'5 9.1
2017-Sep-24 07:00N 37°42' W 122°46'5 9.1
2017-Sep-24 06:30N 37°39' W 122°50'4 8.9
2017-Sep-24 06:00N 37°37' W 122°55'611.3
2017-Sep-24 05:30N 37°33' W 123°01'612.5
2017-Sep-24 05:00N 37°30' W 123°07'611.7
2017-Sep-24 04:31N 37°26' W 123°12'3 5.6
2017-Sep-24 04:00N 37°23' W 123°13'5 9.6
2017-Sep-24 03:28N 37°18' W 123°15'511.1
2017-Sep-24 03:00N 37°13' W 123°18'610.9
2017-Sep-24 02:30N 37°08' W 123°20'510.6
2017-Sep-24 02:00N 37°03' W 123°23'510.6
2017-Sep-24 01:30N 36°58' W 123°25'510.6
2017-Sep-24 01:00N 36°53' W 123°28'510.0
2017-Sep-24 00:30N 36°48' W 123°29'510.3
2017-Sep-24 00:00N 36°43' W 123°28'5 9.6
2017-Sep-23 23:30N 36°39' W 123°28'5 9.3
2017-Sep-23 23:00N 36°34' W 123°28'610.3
2017-Sep-23 22:25N 36°28' W 123°27'410.0
2017-Sep-23 22:00N 36°24' W 123°27'5 9.7
2017-Sep-23 21:30N 36°19' W 123°26'6 9.8
2017-Sep-23 20:56N 36°13' W 123°25'410.2
2017-Sep-23 20:30N 36°09' W 123°25'510.6
2017-Sep-23 20:00N 36°04' W 123°24'  
2017-Sep-21 02:19N 32°08' W 117°19'0 1.1
2017-Sep-21 01:58N 32°08' W 117°19'1 1.2
2017-Sep-21 01:29N 32°08' W 117°20'1 1.1
2017-Sep-21 00:18N 32°09' W 117°21'0 1.0
2017-Sep-20 23:50N 32°10' W 117°21'0 1.0
2017-Sep-20 23:30N 32°10' W 117°21'0 0.9
2017-Sep-20 22:57N 32°10' W 117°22'0 1.0
2017-Sep-20 22:26N 32°11' W 117°22'0 0.8
2017-Sep-20 21:57N 32°11' W 117°22'0 0.8
2017-Sep-20 21:30N 32°11' W 117°23'1 0.9
2017-Sep-20 20:52N 32°12' W 117°23'0 0.8
2017-Sep-20 20:24N 32°12' W 117°23'1 1.0
2017-Sep-20 19:41N 32°12' W 117°24'0 1.0
2017-Sep-20 19:30N 32°12' W 117°24'0 0.9
2017-Sep-20 19:00N 32°12' W 117°25'1 1.1
2017-Sep-20 18:30N 32°13' W 117°25'1 1.1
2017-Sep-20 17:59N 32°13' W 117°26'1 1.1
2017-Sep-20 17:30N 32°13' W 117°27'3 3.4
2017-Sep-20 16:41N 32°15' W 117°24'311.4
2017-Sep-20 16:27N 32°16' W 117°21'511.9
2017-Sep-20 16:00N 32°18' W 117°16'612.1
2017-Sep-20 15:30N 32°20' W 117°09'3 0.2
2017-Sep-20 02:09N 32°21' W 117°06'0 1.7
2017-Sep-20 01:52N 32°20' W 117°06'1 0.0
2017-Sep-19 11:54N 32°20' W 117°07'0 0.0
2017-Sep-19 09:30N 32°20' W 117°07'0 0.0
2017-Sep-19 09:00N 32°20' W 117°07'0 0.1
2017-Sep-19 08:12N 32°20' W 117°07'0 0.1
2017-Sep-19 08:00N 32°20' W 117°07'0 0.1
2017-Sep-19 07:12N 32°20' W 117°07'0 0.0
2017-Sep-19 06:48N 32°20' W 117°07'0 0.2
2017-Sep-19 06:30N 32°20' W 117°07'0 0.1
2017-Sep-19 05:18N 32°20' W 117°07'0 0.0
2017-Sep-19 05:00N 32°20' W 117°07'0 0.0
2017-Sep-19 03:42N 32°20' W 117°07'0 0.0
2017-Sep-19 01:36N 32°20' W 117°07'0 0.3
2017-Sep-19 01:24N 32°20' W 117°07'0 0.1
2017-Sep-19 00:36N 32°20' W 117°07'0 0.0
2017-Sep-18 22:24N 32°20' W 117°07'0 0.0
2017-Sep-18 21:18N 32°20' W 117°07'0 0.0
2017-Sep-18 20:54N 32°20' W 117°07'0 0.0
2017-Sep-18 20:24N 32°20' W 117°07'0 0.0
2017-Sep-18 19:48N 32°20' W 117°07'1 0.0
2017-Sep-17 08:57N 32°20' W 117°06'1 0.3
2017-Sep-17 05:42N 32°20' W 117°06'0 0.1
2017-Sep-17 05:24N 32°20' W 117°06'0 0.1
2017-Sep-17 04:48N 32°20' W 117°07'0 0.0
2017-Sep-17 02:42N 32°20' W 117°06'0 0.0
2017-Sep-17 00:36N 32°20' W 117°06'0 0.0
2017-Sep-16 23:42N 32°20' W 117°06'0 0.3
2017-Sep-16 23:30N 32°20' W 117°07'0 0.0
2017-Sep-16 22:24N 32°20' W 117°06'0 0.0
2017-Sep-16 20:48N 32°20' W 117°06'0 0.1
2017-Sep-16 20:12N 32°20' W 117°06'0 0.0
2017-Sep-16 15:12N 32°20' W 117°06'0 0.0
2017-Sep-16 06:06N 32°20' W 117°06'0 0.0
2017-Sep-16 06:00N 32°20' W 117°06'0 0.1
2017-Sep-16 05:18N 32°20' W 117°07'0 0.1
2017-Sep-16 04:57N 32°20' W 117°06'0 0.0
2017-Sep-16 03:42N 32°20' W 117°06'0 0.0
2017-Sep-16 03:18N 32°20' W 117°06'0 0.0
2017-Sep-16 03:00N 32°20' W 117°06'0 0.0
2017-Sep-16 02:00N 32°20' W 117°06'0 0.0
2017-Sep-16 00:30N 32°20' W 117°06'0 0.0
2017-Sep-15 21:42N 32°20' W 117°06'0 0.0
2017-Sep-15 21:30N 32°20' W 117°06'0 0.0
2017-Sep-15 20:59N 32°20' W 117°06'0 0.0
2017-Sep-15 20:24N 32°20' W 117°06'0 0.0
2017-Sep-15 19:53N 32°20' W 117°06'0 0.0
2017-Sep-15 19:24N 32°20' W 117°06'0 0.0
2017-Sep-15 09:11N 32°20' W 117°06'0 0.0
2017-Sep-15 08:59N 32°20' W 117°06'0 0.1
2017-Sep-15 08:17N 32°20' W 117°07'0 0.2
2017-Sep-15 08:00N 32°20' W 117°06'  
Track history (hours):
 
Tides and Currents Weather Stations Pressure Air Temp Water Temp Dewpoint Dewpoint Depression Visibility Wind Speed Wind Dir Waves Ship Positions

Alpine Madeleine

Last reported at 2017-Sep-25 07:26 UTC. Time now 2017-Sep-26 05:56 UTC.
Position N 38°04' W 122°15'.

Length 183 m; draft 7.2 m.

Type: Tanker. MMSI: 477110300.

Date/timePositionNaut miles runAvg speedWind from/ knotsBaromVisibWave heightAir tempDewpointWater temp
2017-Sep-25 07:26N 38°04' W 122°15'0 0.0
2017-Sep-25 07:00N 38°04' W 122°15'1 1.5
2017-Sep-25 06:30N 38°04' W 122°15'4 8.5
2017-Sep-25 06:00N 38°03' W 122°21'510.7
2017-Sep-25 05:30N 37°59' W 122°26'510.0
2017-Sep-25 05:00N 37°54' W 122°26'510.7
2017-Sep-25 04:30N 37°49' W 122°23'4 8.7
2017-Sep-25 04:00N 37°46' W 122°20'0 0.0
2017-Sep-25 03:30N 37°46' W 122°20'0 0.0
2017-Sep-25 03:00N 37°46' W 122°20'0 0.0
2017-Sep-25 02:30N 37°46' W 122°20'0 0.0
2017-Sep-25 02:00N 37°46' W 122°20'0 0.0
2017-Sep-25 01:30N 37°46' W 122°20'0 0.0
2017-Sep-25 01:00N 37°46' W 122°20'0 0.0
2017-Sep-25 00:30N 37°46' W 122°20'0 0.2
2017-Sep-25 00:00N 37°46' W 122°20'0 0.1
2017-Sep-24 23:30N 37°46' W 122°20'0 0.1
2017-Sep-24 23:00N 37°46' W 122°20'0 0.2
2017-Sep-24 22:30N 37°45' W 122°20'0 0.0
2017-Sep-24 22:00N 37°45' W 122°20'0 0.1
2017-Sep-24 21:30N 37°45' W 122°20'0 0.0
2017-Sep-24 21:00N 37°45' W 122°20'0 0.0
2017-Sep-24 20:30N 37°45' W 122°20'0 0.0
2017-Sep-24 20:00N 37°45' W 122°20'0 0.0
2017-Sep-24 19:30N 37°45' W 122°20'0 0.0
2017-Sep-24 19:00N 37°45' W 122°20'0 0.0
2017-Sep-24 18:30N 37°45' W 122°20'0 0.0
2017-Sep-24 18:00N 37°45' W 122°20'0 0.1
2017-Sep-24 17:30N 37°45' W 122°20'0 0.4
2017-Sep-24 17:00N 37°46' W 122°20'0 0.1
2017-Sep-24 16:30N 37°46' W 122°20'0 0.0
2017-Sep-24 16:00N 37°46' W 122°20'0 0.0
2017-Sep-24 15:30N 37°46' W 122°20'0 0.0
2017-Sep-24 14:59N 37°46' W 122°20'0 0.0
2017-Sep-24 14:30N 37°46' W 122°20'0 0.0
2017-Sep-24 14:00N 37°46' W 122°20'0 0.0
2017-Sep-24 13:29N 37°46' W 122°20'0 0.0
2017-Sep-24 13:00N 37°46' W 122°20'0 0.1
2017-Sep-24 12:30N 37°46' W 122°20'0 0.1
2017-Sep-24 12:00N 37°46' W 122°20'0 0.0
2017-Sep-24 11:30N 37°46' W 122°20'0 0.1
2017-Sep-24 11:00N 37°45' W 122°20'0 0.2
2017-Sep-24 10:30N 37°45' W 122°20'0 0.1
2017-Sep-24 10:00N 37°45' W 122°20'0 0.1
2017-Sep-24 09:30N 37°45' W 122°20'0 0.7
2017-Sep-24 09:00N 37°45' W 122°21'510.3
2017-Sep-24 08:30N 37°49' W 122°25'714.3
2017-Sep-24 08:00N 37°47' W 122°34'612.9
2017-Sep-24 07:30N 37°44' W 122°41'5 9.1
2017-Sep-24 07:00N 37°42' W 122°46'5 9.1
2017-Sep-24 06:30N 37°39' W 122°50'4 8.9
2017-Sep-24 06:00N 37°37' W 122°55'611.3
2017-Sep-24 05:30N 37°33' W 123°01'612.5
2017-Sep-24 05:00N 37°30' W 123°07'611.7
2017-Sep-24 04:31N 37°26' W 123°12'3 5.6
2017-Sep-24 04:00N 37°23' W 123°13'5 9.6
2017-Sep-24 03:28N 37°18' W 123°15'511.1
2017-Sep-24 03:00N 37°13' W 123°18'610.9
2017-Sep-24 02:30N 37°08' W 123°20'510.6
2017-Sep-24 02:00N 37°03' W 123°23'510.6
2017-Sep-24 01:30N 36°58' W 123°25'510.6
2017-Sep-24 01:00N 36°53' W 123°28'510.0
2017-Sep-24 00:30N 36°48' W 123°29'510.3
2017-Sep-24 00:00N 36°43' W 123°28'5 9.6
2017-Sep-23 23:30N 36°39' W 123°28'5 9.3
2017-Sep-23 23:00N 36°34' W 123°28'610.3
2017-Sep-23 22:25N 36°28' W 123°27'410.0
2017-Sep-23 22:00N 36°24' W 123°27'5 9.7
2017-Sep-23 21:30N 36°19' W 123°26'6 9.8
2017-Sep-23 20:56N 36°13' W 123°25'410.2
2017-Sep-23 20:30N 36°09' W 123°25'510.6
2017-Sep-23 20:00N 36°04' W 123°24'  
2017-Sep-21 02:19N 32°08' W 117°19'0 1.1
2017-Sep-21 01:58N 32°08' W 117°19'1 1.2
2017-Sep-21 01:29N 32°08' W 117°20'1 1.1
2017-Sep-21 00:18N 32°09' W 117°21'0 1.0
2017-Sep-20 23:50N 32°10' W 117°21'0 1.0
2017-Sep-20 23:30N 32°10' W 117°21'0 0.9
2017-Sep-20 22:57N 32°10' W 117°22'0 1.0
2017-Sep-20 22:26N 32°11' W 117°22'0 0.8
2017-Sep-20 21:57N 32°11' W 117°22'0 0.8
2017-Sep-20 21:30N 32°11' W 117°23'1 0.9
2017-Sep-20 20:52N 32°12' W 117°23'0 0.8
2017-Sep-20 20:24N 32°12' W 117°23'1 1.0
2017-Sep-20 19:41N 32°12' W 117°24'0 1.0
2017-Sep-20 19:30N 32°12' W 117°24'0 0.9
2017-Sep-20 19:00N 32°12' W 117°25'1 1.1
2017-Sep-20 18:30N 32°13' W 117°25'1 1.1
2017-Sep-20 17:59N 32°13' W 117°26'1 1.1
2017-Sep-20 17:30N 32°13' W 117°27'3 3.4
2017-Sep-20 16:41N 32°15' W 117°24'311.4
2017-Sep-20 16:27N 32°16' W 117°21'511.9
2017-Sep-20 16:00N 32°18' W 117°16'612.1
2017-Sep-20 15:30N 32°20' W 117°09'3 0.2
2017-Sep-20 02:09N 32°21' W 117°06'0 1.7
2017-Sep-20 01:52N 32°20' W 117°06'1 0.0
2017-Sep-19 11:54N 32°20' W 117°07'0 0.0
2017-Sep-19 09:30N 32°20' W 117°07'0 0.0
2017-Sep-19 09:00N 32°20' W 117°07'0 0.1
2017-Sep-19 08:12N 32°20' W 117°07'0 0.1
2017-Sep-19 08:00N 32°20' W 117°07'0 0.1
2017-Sep-19 07:12N 32°20' W 117°07'0 0.0
2017-Sep-19 06:48N 32°20' W 117°07'0 0.2
2017-Sep-19 06:30N 32°20' W 117°07'0 0.1
2017-Sep-19 05:18N 32°20' W 117°07'0 0.0
2017-Sep-19 05:00N 32°20' W 117°07'0 0.0
2017-Sep-19 03:42N 32°20' W 117°07'0 0.0
2017-Sep-19 01:36N 32°20' W 117°07'0 0.3
2017-Sep-19 01:24N 32°20' W 117°07'0 0.1
2017-Sep-19 00:36N 32°20' W 117°07'0 0.0
2017-Sep-18 22:24N 32°20' W 117°07'0 0.0
2017-Sep-18 21:18N 32°20' W 117°07'0 0.0
2017-Sep-18 20:54N 32°20' W 117°07'0 0.0
2017-Sep-18 20:24N 32°20' W 117°07'0 0.0
2017-Sep-18 19:48N 32°20' W 117°07'1 0.0
2017-Sep-17 08:57N 32°20' W 117°06'1 0.3
2017-Sep-17 05:42N 32°20' W 117°06'0 0.1
2017-Sep-17 05:24N 32°20' W 117°06'0 0.1
2017-Sep-17 04:48N 32°20' W 117°07'0 0.0
2017-Sep-17 02:42N 32°20' W 117°06'0 0.0
2017-Sep-17 00:36N 32°20' W 117°06'0 0.0
2017-Sep-16 23:42N 32°20' W 117°06'0 0.3
2017-Sep-16 23:30N 32°20' W 117°07'0 0.0
2017-Sep-16 22:24N 32°20' W 117°06'0 0.0
2017-Sep-16 20:48N 32°20' W 117°06'0 0.1
2017-Sep-16 20:12N 32°20' W 117°06'0 0.0
2017-Sep-16 15:12N 32°20' W 117°06'0 0.0
2017-Sep-16 06:06N 32°20' W 117°06'0 0.0
2017-Sep-16 06:00N 32°20' W 117°06'0 0.1
2017-Sep-16 05:18N 32°20' W 117°07'0 0.1
2017-Sep-16 04:57N 32°20' W 117°06'0 0.0
2017-Sep-16 03:42N 32°20' W 117°06'0 0.0
2017-Sep-16 03:18N 32°20' W 117°06'0 0.0
2017-Sep-16 03:00N 32°20' W 117°06'0 0.0
2017-Sep-16 02:00N 32°20' W 117°06'0 0.0
2017-Sep-16 00:30N 32°20' W 117°06'0 0.0
2017-Sep-15 21:42N 32°20' W 117°06'0 0.0
2017-Sep-15 21:30N 32°20' W 117°06'0 0.0
2017-Sep-15 20:59N 32°20' W 117°06'0 0.0
2017-Sep-15 20:24N 32°20' W 117°06'0 0.0
2017-Sep-15 19:53N 32°20' W 117°06'0 0.0
2017-Sep-15 19:24N 32°20' W 117°06'0 0.0
2017-Sep-15 09:11N 32°20' W 117°06'0 0.0
2017-Sep-15 08:59N 32°20' W 117°06'0 0.1
2017-Sep-15 08:17N 32°20' W 117°07'0 0.2
2017-Sep-15 08:00N 32°20' W 117°06'  

Dump ship's entire track history